Fairmont, California
Current Conditions -  °F | °C
As of 2:48 PM on Tuesday 21 Oct 2014 (Local Time) from KSDB Reporting Station
Clear Clear  
Wind Chill: 60°   Ceiling: Unl
Heat Index: 60°   Visibility: 10mi
Dew Point: 43°   Wind: 28mph
Humidity: 53%   Direction: 350°N
Pressure: 30.02"   Gusts: 35mph
Location:  34.8604°N, 118.583°W
Report Text: KSDB 212148Z AUTO 35024G30KT 10SM CLR 16/06 A3002 RMK AO2 PK WND 35030/2139 SLP132 T01560061
Loading
Personal Weather Stations






























Interactive Weather Map
Tropical Storm Tracking
New forecast layout! Learn more

10-Day Weather Forecast

Advertisements
Track Severe Weather on mobile